Time;durP1;ratioP1;P1;durP2;ratioP2;P2;SDS_P1;SDS_P2;PMS_P1;PMS_P2;Temp;Humidity;BMP_temperature;BMP_pressure;BME280_temperature;BME280_humidity;BME280_pressure;Samples;Min_cycle;Max_cycle;Signal;HPM_P1;HPM_P2
2022/04/14 00:00:09;;;;;;;;;6.00;6.00;;;;;16.97;61.19;101620.00;5078154;27;45445;-72
2022/04/14 00:02:35;;;;;;;;;9.67;7.00;;;;;16.94;61.05;101612.97;5078158;27;45470;-72
2022/04/14 00:05:00;;;;;;;;;7.67;6.00;;;;;16.99;60.81;101619.94;5077759;27;46115;-72
2022/04/14 00:07:26;;;;;;;;;8.67;6.33;;;;;16.98;61.33;101621.72;5078125;28;45397;-71
2022/04/14 00:09:51;;;;;;;;;6.00;6.00;;;;;16.80;61.43;101587.50;5078130;27;45453;-71
2022/04/14 00:12:17;;;;;;;;;5.33;5.33;;;;;16.95;61.49;101614.69;5078060;27;45810;-71
2022/04/14 00:14:42;;;;;;;;;9.33;8.33;;;;;16.92;61.46;101616.50;5077660;27;45368;-70
2022/04/14 00:17:08;;;;;;;;;7.67;7.67;;;;;16.91;61.41;101612.97;5077446;27;45452;-71
2022/04/14 00:19:34;;;;;;;;;7.67;7.33;;;;;16.92;61.45;101613.88;5076668;27;45381;-71
2022/04/14 00:22:00;;;;;;;;;9.00;9.00;;;;;16.89;61.71;101620.03;5077824;27;45365;-72
2022/04/14 00:24:26;;;;;;;;;9.67;7.00;;;;;16.85;61.85;101610.41;5077807;27;45360;-69
2022/04/14 00:26:52;;;;;;;;;8.33;7.00;;;;;16.89;61.56;101619.16;5076135;28;45518;-71
2022/04/14 00:29:17;;;;;;;;;9.00;8.67;;;;;16.90;61.53;101610.34;5077347;27;45556;-71
2022/04/14 00:31:43;;;;;;;;;8.33;8.33;;;;;16.87;61.36;101607.72;5077463;27;45483;-72
2022/04/14 00:34:09;;;;;;;;;9.67;7.00;;;;;16.88;61.39;101615.66;5077133;27;46378;-72
2022/04/14 00:36:34;;;;;;;;;8.67;6.67;;;;;16.87;62.22;101608.63;5077231;28;45391;-71
2022/04/14 00:39:00;;;;;;;;;8.67;7.33;;;;;16.78;61.84;101595.44;5077805;27;45218;-71
2022/04/14 00:41:27;;;;;;;;;10.33;5.67;;;;;16.85;61.75;101604.25;5077981;27;45317;-72
2022/04/14 00:43:55;;;;;;;;;15.33;10.00;;;;;16.79;61.82;101596.34;5077275;27;45474;-73
2022/04/14 00:46:21;;;;;;;;;8.67;8.67;;;;;16.80;61.75;101601.63;5076757;28;45444;-72
2022/04/14 00:48:52;;;;;;;;;8.33;8.33;;;;;16.80;62.03;101606.94;5077370;27;45385;-72
2022/04/14 00:51:18;;;;;;;;;9.00;8.33;;;;;16.71;62.18;101599.91;5077633;27;45291;-73
2022/04/14 00:53:44;;;;;;;;;11.67;8.33;;;;;16.71;62.33;101593.75;5077578;28;45275;-71
2022/04/14 00:56:09;;;;;;;;;14.00;10.33;;;;;16.79;61.98;101602.50;5081265;27;45611;-71
2022/04/14 00:58:35;;;;;;;;;7.67;6.33;;;;;16.80;62.00;101612.22;5080409;27;45418;-72
2022/04/14 01:01:03;;;;;;;;;9.33;7.67;;;;;16.67;61.86;101592.91;5081421;27;45350;-73
2022/04/14 01:03:28;;;;;;;;;12.67;10.33;;;;;16.61;62.00;101582.41;5081117;27;45314;-70
2022/04/14 01:05:55;;;;;;;;;10.00;8.33;;;;;16.70;62.31;101597.28;5080594;27;45362;-69
2022/04/14 01:08:22;;;;;;;;;8.33;8.33;;;;;16.60;62.41;101588.56;5080759;27;45493;-68
2022/04/14 01:10:50;;;;;;;;;8.67;8.67;;;;;16.72;62.43;101612.25;5080635;27;46075;-69
2022/04/14 01:13:17;;;;;;;;;8.67;8.67;;;;;16.61;62.84;101597.34;5080393;27;45371;-69
2022/04/14 01:15:47;;;;;;;;;11.67;10.33;;;;;16.67;62.93;101615.84;5079140;28;45556;-69
2022/04/14 01:18:13;;;;;;;;;10.67;10.67;;;;;16.64;62.85;101607.94;5080441;27;45245;-68
2022/04/14 01:20:43;;;;;;;;;9.33;9.33;;;;;16.65;62.85;101614.97;5080422;27;45346;-70
2022/04/14 01:23:21;;;;;;;;;10.33;9.00;;;;;16.58;62.67;101600.91;5080043;27;46601;-69
2022/04/14 01:25:47;;;;;;;;;8.33;7.67;;;;;16.62;62.91;101610.59;5078356;27;45452;-70
2022/04/14 01:28:13;;;;;;;;;11.33;11.33;;;;;16.52;62.91;101604.50;5079903;27;45549;-70
2022/04/14 01:30:38;;;;;;;;;10.67;10.00;;;;;16.61;62.52;101616.78;5080606;27;45255;-70
2022/04/14 01:33:04;;;;;;;;;10.67;9.67;;;;;16.57;62.99;101600.94;5080185;27;46185;-71
2022/04/14 01:35:30;;;;;;;;;9.00;9.00;;;;;16.59;63.33;101622.97;5080733;27;45338;-69
2022/04/14 01:37:56;;;;;;;;;10.33;10.33;;;;;16.59;62.93;101628.25;5080335;27;45443;-68
2022/04/14 01:40:22;;;;;;;;;14.33;13.00;;;;;16.58;63.52;101630.00;5078897;27;45436;-69
2022/04/14 01:42:48;;;;;;;;;11.33;11.33;;;;;16.56;63.31;101615.03;5079782;27;45333;-69
2022/04/14 01:45:13;;;;;;;;;11.67;11.00;;;;;16.48;63.53;101621.28;5079867;27;45483;-71
2022/04/14 01:47:44;;;;;;;;;13.33;13.00;;;;;16.51;63.61;101623.91;5079817;27;45393;-71
2022/04/14 01:50:12;;;;;;;;;8.00;8.00;;;;;16.49;63.48;101623.03;5080068;27;45487;-72
2022/04/14 01:52:38;;;;;;;;;13.00;10.67;;;;;16.50;63.65;101615.97;5079695;28;46223;-69
2022/04/14 01:55:05;;;;;;;;;13.33;10.00;;;;;16.42;63.74;101613.41;5079241;27;45537;-69
2022/04/14 01:57:31;;;;;;;;;11.67;10.00;;;;;16.29;63.61;101585.31;5079871;27;45397;-68
2022/04/14 01:59:58;;;;;;;;;13.00;11.67;;;;;16.40;63.60;101606.38;5080095;27;45308;-70
2022/04/14 02:02:24;;;;;;;;;12.00;11.00;;;;;16.45;63.48;101612.50;5079685;27;45327;-70
2022/04/14 02:04:51;;;;;;;;;11.33;11.33;;;;;16.47;63.69;101616.03;5079663;27;45279;-70
2022/04/14 02:07:17;;;;;;;;;13.33;12.00;;;;;16.37;64.10;101612.53;5079729;27;45424;-70
2022/04/14 02:09:42;;;;;;;;;12.00;10.00;;;;;16.31;64.34;101612.59;5078913;27;45494;-70
2022/04/14 02:12:09;;;;;;;;;13.00;9.33;;;;;16.31;64.22;101604.69;5079431;27;45457;-68
2022/04/14 02:14:35;;;;;;;;;11.67;10.00;;;;;16.33;64.15;101611.72;5079710;27;45429;-68
2022/04/14 02:17:00;;;;;;;;;11.33;8.67;;;;;16.33;63.81;101601.13;5080295;27;45509;-71
2022/04/14 02:19:26;;;;;;;;;13.00;10.33;;;;;16.38;63.90;101605.50;5080290;27;45450;-71
2022/04/14 02:21:52;;;;;;;;;14.33;10.67;;;;;16.40;63.71;101614.31;5080419;27;45725;-74
2022/04/14 02:24:18;;;;;;;;;12.33;11.67;;;;;16.34;64.13;101607.28;5080006;28;46433;-74
2022/04/14 02:26:44;;;;;;;;;13.33;12.00;;;;;16.31;64.23;101599.41;5079786;27;45389;-71
2022/04/14 02:29:09;;;;;;;;;13.33;10.67;;;;;16.26;64.06;101586.22;5079859;27;45390;-72
2022/04/14 02:31:35;;;;;;;;;11.67;11.67;;;;;16.29;64.22;101598.53;5079373;27;46113;-71
2022/04/14 02:34:00;;;;;;;;;11.33;10.67;;;;;16.35;64.31;101600.22;5079431;27;45315;-71
2022/04/14 02:36:26;;;;;;;;;15.00;10.33;;;;;16.32;63.83;101598.50;5079076;27;45506;-71
2022/04/14 02:38:51;;;;;;;;;10.00;10.00;;;;;16.36;64.02;101607.28;5078104;27;45529;-70
2022/04/14 02:41:17;;;;;;;;;10.67;10.67;;;;;16.34;64.22;101607.28;5077597;28;46704;-68
2022/04/14 02:43:43;;;;;;;;;11.00;10.67;;;;;16.26;64.07;101594.13;5079048;27;45461;-73
2022/04/14 02:46:13;;;;;;;;;12.00;11.00;;;;;16.35;64.30;101618.72;5077721;28;45484;-71
2022/04/14 02:48:38;;;;;;;;;12.33;10.67;;;;;16.27;64.31;101610.88;5079239;27;45486;-71
2022/04/14 02:51:04;;;;;;;;;13.00;10.67;;;;;16.08;64.10;101581.94;5079187;27;45697;-72
2022/04/14 02:53:29;;;;;;;;;13.67;12.00;;;;;16.21;64.41;101606.53;5078878;27;45376;-71
2022/04/14 02:55:55;;;;;;;;;12.67;11.67;;;;;16.27;64.46;101617.03;5079196;27;45423;-72
2022/04/14 02:58:20;;;;;;;;;11.33;10.33;;;;;16.27;64.51;101618.81;5079234;27;45483;-70
2022/04/14 03:00:46;;;;;;;;;9.67;9.00;;;;;16.29;64.10;101614.38;5078780;28;45392;-72
2022/04/14 03:03:11;;;;;;;;;11.33;11.33;;;;;16.26;64.57;101607.34;5079992;27;45425;-72
2022/04/14 03:05:38;;;;;;;;;12.67;9.33;;;;;16.29;64.48;101611.75;5079141;27;45459;-71
2022/04/14 03:08:04;;;;;;;;;12.67;11.67;;;;;16.27;64.24;101613.50;5079229;27;45432;-70
2022/04/14 03:10:29;;;;;;;;;12.67;11.67;;;;;16.14;64.08;101594.25;5078178;27;45681;-71
2022/04/14 03:12:57;;;;;;;;;13.67;11.67;;;;;16.14;64.71;101603.94;5078693;27;45427;-73
2022/04/14 03:15:26;;;;;;;;;11.67;10.00;;;;;16.04;64.50;101590.78;5078617;27;45535;-71
2022/04/14 03:17:53;;;;;;;;;17.67;12.00;;;;;16.04;64.69;101589.88;5078841;27;45420;-72
2022/04/14 03:20:18;;;;;;;;;12.67;11.00;;;;;16.10;64.50;101605.72;5078117;27;45563;-73
2022/04/14 03:22:44;;;;;;;;;10.00;10.00;;;;;16.05;64.84;101603.09;5079549;27;45406;-72
2022/04/14 03:25:15;;;;;;;;;10.33;9.67;;;;;16.14;64.64;101620.66;5079481;27;45552;-72
2022/04/14 03:27:42;;;;;;;;;10.33;10.33;;;;;16.04;64.34;101601.34;5082840;27;45412;-73
2022/04/14 03:30:10;;;;;;;;;11.00;11.00;;;;;16.19;64.39;101623.28;5082564;27;45505;-71
2022/04/14 03:32:44;;;;;;;;;12.67;9.00;;;;;16.15;64.65;101619.75;5082498;27;45455;-71
2022/04/14 03:35:11;;;;;;;;;10.00;10.00;;;;;16.16;64.65;101620.63;5081879;27;45302;-70
2022/04/14 03:37:36;;;;;;;;;11.00;10.67;;;;;16.19;64.70;101628.56;5082499;27;45431;-71
2022/04/14 03:40:04;;;;;;;;;11.33;11.33;;;;;16.08;64.81;101610.13;5080474;27;46302;-70
2022/04/14 03:42:30;;;;;;;;;14.00;12.33;;;;;16.10;64.71;101632.13;5082347;27;45448;-75
2022/04/14 03:44:55;;;;;;;;;13.67;11.33;;;;;16.11;64.84;101628.59;5082014;28;45329;-75
2022/04/14 03:47:21;;;;;;;;;13.33;11.67;;;;;16.01;64.82;101608.41;5080280;27;45496;-73
2022/04/14 03:49:47;;;;;;;;;14.33;12.67;;;;;15.98;64.86;101611.09;5079896;27;45291;-75
2022/04/14 03:52:13;;;;;;;;;12.67;11.00;;;;;16.07;64.71;101621.59;5080284;28;45490;-72
2022/04/14 03:54:38;;;;;;;;;14.67;12.33;;;;;16.10;65.04;101638.28;5080399;27;45342;-72
2022/04/14 03:57:04;;;;;;;;;12.67;10.33;;;;;16.05;65.04;101631.28;5080791;28;45356;-72
2022/04/14 03:59:34;;;;;;;;;16.00;12.67;;;;;15.96;65.07;101616.38;5081013;27;45353;-72
2022/04/14 04:01:59;;;;;;;;;12.67;12.00;;;;;16.08;65.23;101641.84;5078920;27;45408;-74
2022/04/14 04:04:25;;;;;;;;;18.75;14.75;;;;;16.08;65.06;101642.72;5079295;27;45793;-74
2022/04/14 04:06:51;;;;;;;;;12.67;11.33;;;;;16.06;64.86;101647.16;5084100;27;45366;-72
2022/04/14 04:09:16;;;;;;;;;17.67;11.00;;;;;16.09;64.76;101652.41;5082149;27;45245;-73
2022/04/14 04:11:43;;;;;;;;;17.00;15.50;;;;;15.96;65.06;101626.06;5078014;27;45333;-72
2022/04/14 04:14:10;;;;;;;;;13.67;13.67;;;;;15.94;65.19;101635.75;5078422;27;45364;-73
2022/04/14 04:16:37;;;;;;;;;17.75;14.00;;;;;15.92;65.65;101641.03;5078168;27;45347;-73
2022/04/14 04:19:05;;;;;;;;;16.00;16.00;;;;;15.71;65.50;101606.81;5077710;27;45520;-73
2022/04/14 04:21:32;;;;;;;;;16.50;16.00;;;;;15.82;65.65;101631.41;5074013;27;45321;-73
2022/04/14 04:24:01;;;;;;;;;16.00;16.00;;;;;15.87;65.76;101635.81;5067207;27;45321;-73
2022/04/14 04:26:27;;;;;;;;;17.75;17.75;;;;;15.80;65.74;101631.44;5066062;28;45247;-73
2022/04/14 04:28:54;;;;;;;;;14.50;13.75;;;;;15.80;65.67;101627.91;5078004;27;46475;-71
2022/04/14 04:31:20;;;;;;;;;16.00;12.25;;;;;15.76;65.68;101621.78;5077157;27;45467;-72
2022/04/14 04:33:53;;;;;;;;;16.75;16.75;;;;;15.55;66.21;101606.88;5077268;27;45321;-71
2022/04/14 04:36:19;;;;;;;;;18.50;17.50;;;;;15.55;66.47;101614.81;5077597;27;45424;-71
2022/04/14 04:38:45;;;;;;;;;18.75;17.00;;;;;15.64;66.67;101640.31;5077245;27;46494;-72
2022/04/14 04:41:11;;;;;;;;;17.75;16.75;;;;;15.66;66.53;101638.50;5077837;28;45255;-72
2022/04/14 04:43:37;;;;;;;;;18.25;16.00;;;;;15.64;66.78;101643.81;5077987;27;45289;-72
2022/04/14 04:46:08;;;;;;;;;21.25;15.00;;;;;15.63;66.47;101652.59;5075715;27;45648;-73
2022/04/14 04:48:34;;;;;;;;;18.75;16.75;;;;;15.61;66.64;101645.56;5059940;28;45403;-72
2022/04/14 04:51:00;;;;;;;;;15.75;15.25;;;;;15.32;66.33;101598.19;5077314;27;45451;-72
2022/04/14 04:53:26;;;;;;;;;20.75;17.75;;;;;15.68;66.78;101666.69;5077507;27;45322;-71
2022/04/14 04:55:55;;;;;;;;;20.50;17.75;;;;;15.69;66.58;101664.91;5077960;27;45370;-72
2022/04/14 04:58:20;;;;;;;;;20.00;17.25;;;;;15.61;66.46;101661.41;5077103;27;45513;-72
2022/04/14 05:00:46;;;;;;;;;21.00;17.25;;;;;15.71;66.58;101665.84;5076460;27;45506;-72
2022/04/14 05:03:12;;;;;;;;;20.50;17.50;;;;;15.70;66.47;101656.13;5077274;27;45547;-73
2022/04/14 05:05:38;;;;;;;;;22.25;18.75;;;;;15.76;66.19;101668.44;5077442;27;45359;-72
2022/04/14 05:08:05;;;;;;;;;22.75;18.50;;;;;15.76;66.55;101682.53;5077106;28;45419;-72
2022/04/14 05:10:31;;;;;;;;;21.25;20.50;;;;;15.70;66.44;101671.97;5077124;27;45507;-73
2022/04/14 05:12:57;;;;;;;;;22.75;18.00;;;;;15.66;66.34;101672.84;5077032;27;45294;-72
2022/04/14 05:15:23;;;;;;;;;19.00;17.50;;;;;15.62;66.78;101676.41;5075959;28;45395;-72
2022/04/14 05:17:48;;;;;;;;;21.75;20.00;;;;;15.57;66.42;101665.84;5076746;27;45301;-72
2022/04/14 05:20:14;;;;;;;;;23.00;19.00;;;;;15.60;66.42;101670.25;5076855;28;45493;-71
2022/04/14 05:22:43;;;;;;;;;23.75;19.25;;;;;15.39;66.83;101634.22;5073254;28;46049;-73
2022/04/14 05:25:09;;;;;;;;;21.50;20.75;;;;;15.16;67.07;101602.63;5059536;27;45479;-70
2022/04/14 05:27:35;;;;;;;;;22.75;19.00;;;;;15.50;66.92;101665.88;5076657;27;45459;-68
2022/04/14 05:30:01;;;;;;;;;25.50;23.00;;;;;15.55;66.79;101680.81;5076524;28;46016;-70
2022/04/14 05:32:26;;;;;;;;;18.00;16.75;;;;;15.57;66.57;101686.09;5057171;27;45543;-70
2022/04/14 05:34:53;;;;;;;;;19.75;17.50;;;;;15.57;66.61;101676.41;5056550;28;45279;-72
2022/04/14 05:37:18;;;;;;;;;19.00;14.75;;;;;15.62;66.34;101673.75;5056498;28;45604;-72
2022/04/14 05:39:44;;;;;;;;;20.75;18.75;;;;;15.52;66.36;101662.34;5056626;28;45414;-70
2022/04/14 05:42:09;;;;;;;;;25.00;21.00;;;;;15.47;66.29;101657.09;5056426;28;45333;-68
2022/04/14 05:44:35;;;;;;;;;19.00;18.75;;;;;15.60;66.36;101694.88;5056615;28;45516;-70
2022/04/14 05:47:01;;;;;;;;;18.25;17.25;;;;;15.58;66.50;101678.16;5059666;28;46287;-69
2022/04/14 05:49:26;;;;;;;;;20.75;19.75;;;;;15.68;66.16;101697.47;5058232;28;45812;-69
2022/04/14 05:51:52;;;;;;;;;24.00;21.25;;;;;15.61;66.31;101675.53;5059435;28;45419;-69
2022/04/14 05:54:17;;;;;;;;;23.00;21.25;;;;;15.75;66.15;101701.88;5059852;28;45323;-69
2022/04/14 05:56:43;;;;;;;;;14.50;10.00;;;;;15.74;66.35;101694.00;5059728;28;46359;-69
2022/04/14 05:59:16;;;;;;;;;21.25;19.75;;;;;15.77;66.18;101697.47;5059537;28;45314;-69
2022/04/14 06:01:45;;;;;;;;;24.75;21.00;;;;;15.81;66.04;101699.22;5059912;28;45481;-72
2022/04/14 06:04:11;;;;;;;;;27.00;24.00;;;;;15.70;66.04;101682.53;5059722;28;45254;-71
2022/04/14 06:06:37;;;;;;;;;24.50;22.00;;;;;15.85;66.10;101705.38;5058607;28;46477;-73
2022/04/14 06:09:04;;;;;;;;;22.75;20.00;;;;;15.88;66.14;101700.09;5064991;28;45485;-71
2022/04/14 06:11:30;;;;;;;;;28.00;22.50;;;;;15.83;66.01;101691.31;5079263;27;45367;-71
2022/04/14 06:13:55;;;;;;;;;28.75;26.25;;;;;15.92;65.93;101701.81;5077652;27;45608;-71
2022/04/14 06:16:21;;;;;;;;;22.50;20.75;;;;;15.75;66.05;101678.13;5079445;27;45377;-74
2022/04/14 06:18:47;;;;;;;;;26.50;23.50;;;;;15.86;66.33;101694.81;5064701;28;45397;-72
2022/04/14 06:21:16;;;;;;;;;27.50;22.50;;;;;15.85;66.43;101695.69;5062816;28;45792;-72
2022/04/14 06:23:42;;;;;;;;;28.00;22.75;;;;;15.81;66.40;101693.94;5070847;28;45407;-72
2022/04/14 06:26:10;;;;;;;;;28.50;24.25;;;;;15.76;66.64;101689.59;5077389;27;46245;-72
2022/04/14 06:28:36;;;;;;;;;34.00;27.00;;;;;15.61;66.54;101664.06;5078678;27;45377;-72
2022/04/14 06:31:02;;;;;;;;;27.25;26.25;;;;;15.84;66.38;101708.91;5078558;27;45506;-72
2022/04/14 06:33:30;;;;;;;;;27.75;26.75;;;;;15.76;66.47;101694.88;5059620;27;45448;-69
2022/04/14 06:36:11;;;;;;;;;29.00;27.75;;;;;15.88;66.26;101714.16;5058835;28;45447;-72
2022/04/14 06:38:39;;;;;;;;;32.25;27.75;;;;;15.98;66.32;101728.22;5057200;28;45510;-73
2022/04/14 06:41:04;;;;;;;;;27.25;25.50;;;;;16.07;65.94;101733.47;5058836;28;45441;-72
2022/04/14 06:43:31;;;;;;;;;27.25;25.75;;;;;16.17;65.73;101731.66;5059161;28;45328;-72
2022/04/14 06:45:58;;;;;;;;;30.25;26.75;;;;;16.24;65.33;101724.56;5077190;27;45420;-73
2022/04/14 06:48:28;;;;;;;;;26.75;24.50;;;;;16.17;65.15;101704.34;5079506;27;46069;-73
2022/04/14 06:50:59;;;;;;;;;29.00;27.00;;;;;16.41;64.85;101733.25;5079562;27;45466;-74
2022/04/14 06:53:38;;;;;;;;;28.75;24.25;;;;;16.14;64.40;101681.47;5068401;28;45214;-73
2022/04/14 06:56:05;;;;;;;;;23.50;22.00;;;;;16.54;64.35;101737.59;5070299;27;45349;-71
2022/04/14 06:58:36;;;;;;;;;33.50;27.50;;;;;16.33;64.30;101690.16;5065473;28;45515;-73
2022/04/14 07:01:01;;;;;;;;;25.50;24.25;;;;;16.70;63.79;101740.13;5078903;27;45452;-72
2022/04/14 07:03:27;;;;;;;;;26.50;26.25;;;;;16.68;63.41;101731.31;5079470;27;45372;-73
2022/04/14 07:05:57;;;;;;;;;24.25;22.00;;;;;16.82;63.48;101748.00;5079607;27;45543;-72
2022/04/14 07:08:24;;;;;;;;;30.75;27.50;;;;;16.80;63.12;101733.03;5079189;27;45217;-73
2022/04/14 07:10:51;;;;;;;;;28.50;26.25;;;;;16.95;63.06;101751.44;5080602;27;45361;-70
2022/04/14 07:13:17;;;;;;;;;27.25;24.25;;;;;16.74;62.60;101710.13;5079164;28;45399;-73
2022/04/14 07:15:43;;;;;;;;;27.50;26.25;;;;;17.04;62.25;101750.50;5082202;27;45636;-71
2022/04/14 07:18:10;;;;;;;;;27.75;26.50;;;;;17.04;62.17;101738.13;5078890;27;45463;-74
2022/04/14 07:20:35;;;;;;;;;25.75;24.50;;;;;16.80;62.09;101703.91;5078825;27;45468;-72
2022/04/14 07:23:02;;;;;;;;;25.75;25.75;;;;;17.02;61.90;101728.44;5078901;28;45347;-73
2022/04/14 07:25:31;;;;;;;;;29.00;24.75;;;;;17.19;61.83;101755.63;5078208;27;45274;-71
2022/04/14 07:28:00;;;;;;;;;23.75;21.00;;;;;17.16;61.56;101750.38;5077976;27;45471;-73
2022/04/14 07:30:27;;;;;;;;;28.25;23.75;;;;;17.25;61.34;101754.69;5078861;27;45516;-68
2022/04/14 07:32:54;;;;;;;;;28.50;23.75;;;;;17.26;61.35;101756.47;5079130;28;45207;-71
2022/04/14 07:35:25;;;;;;;;;25.00;22.50;;;;;17.23;61.48;101757.38;5078756;27;45520;-70
2022/04/14 07:37:52;;;;;;;;;27.75;24.50;;;;;17.06;61.14;101722.22;5078510;27;45240;-69
2022/04/14 07:40:25;;;;;;;;;22.50;19.75;;;;;17.13;60.93;101735.41;5077077;27;45748;-71
2022/04/14 07:42:51;;;;;;;;;29.25;25.25;;;;;17.30;60.93;101756.41;5078442;27;45534;-73
2022/04/14 07:45:17;;;;;;;;;27.25;22.75;;;;;17.28;61.03;101754.69;5078321;27;45512;-72
2022/04/14 07:47:44;;;;;;;;;24.50;23.50;;;;;17.34;61.07;101759.91;5077356;27;45416;-71
2022/04/14 07:50:19;;;;;;;;;30.50;28.25;;;;;17.36;60.96;101760.75;5078368;27;45393;-69
2022/04/14 07:52:55;;;;;;;;;27.50;22.00;;;;;17.24;60.52;101745.88;5077601;27;45279;-71
2022/04/14 07:55:30;;;;;;;;;37.50;29.00;;;;;17.18;60.59;101751.25;5074625;27;45857;-71
2022/04/14 07:58:07;;;;;;;;;38.00;32.75;;;;;17.21;60.52;101769.75;5072889;27;45776;-70
2022/04/14 08:00:36;;;;;;;;;32.25;28.75;;;;;17.15;60.91;101767.13;5068124;28;45382;-72
2022/04/14 08:03:04;;;;;;;;;30.75;29.25;;;;;17.08;60.60;101765.44;5070039;28;45314;-72
2022/04/14 08:05:33;;;;;;;;;31.50;25.75;;;;;17.05;60.98;101760.16;5067444;27;46099;-69
2022/04/14 08:08:04;;;;;;;;;33.75;29.50;;;;;17.07;61.16;101775.16;5054709;28;45583;-73
2022/04/14 08:10:30;;;;;;;;;28.00;27.25;;;;;16.82;61.04;101740.06;5057181;28;46007;-73
2022/04/14 08:12:55;;;;;;;;;30.25;28.25;;;;;17.00;60.98;101756.69;5057437;28;45433;-71
2022/04/14 08:15:29;;;;;;;;;27.50;23.25;;;;;17.17;60.71;101773.28;5059799;28;45968;-70
2022/04/14 08:17:55;;;;;;;;;30.50;28.75;;;;;17.28;60.45;101770.56;5061673;28;45729;-73
2022/04/14 08:20:27;;;;;;;;;34.50;29.75;;;;;17.25;60.31;101755.59;5061008;28;45560;-71
2022/04/14 08:22:55;;;;;;;;;31.50;29.25;;;;;17.34;60.46;101766.06;5060543;28;45270;-72
2022/04/14 08:25:25;;;;;;;;;31.25;29.50;;;;;17.48;60.68;101773.88;5062075;28;46077;-73
2022/04/14 08:27:52;;;;;;;;;30.50;27.50;;;;;17.60;60.14;101772.88;5061767;28;45181;-74
2022/04/14 08:30:21;;;;;;;;;32.25;28.50;;;;;17.69;59.47;101770.13;5061527;28;45323;-72
2022/04/14 08:32:49;;;;;;;;;39.75;31.00;;;;;17.74;59.19;101770.94;5062364;28;45419;-70
2022/04/14 08:35:17;;;;;;;;;38.25;31.50;;;;;17.59;58.94;101740.22;5060516;28;45430;-69
2022/04/14 08:37:43;;;;;;;;;38.75;31.50;;;;;17.76;59.10;101753.25;5061713;28;45255;-70
2022/04/14 08:40:13;;;;;;;;;40.00;34.50;;;;;17.73;58.48;101744.50;5061506;28;45449;-72
2022/04/14 08:42:50;;;;;;;;;43.00;33.50;;;;;17.91;58.58;101780.50;5060915;28;45459;-72
2022/04/14 08:45:17;;;;;;;;;38.50;30.75;;;;;17.86;58.49;101769.09;5060860;28;45654;-71
2022/04/14 08:47:43;;;;;;;;;34.50;32.00;;;;;17.92;58.11;101777.84;5060425;28;45311;-70
2022/04/14 08:50:13;;;;;;;;;32.00;30.00;;;;;17.92;57.51;101769.03;5060450;28;45459;-72
2022/04/14 08:52:45;;;;;;;;;31.00;30.00;;;;;17.85;57.37;101757.63;5060171;28;45328;-73
2022/04/14 08:55:13;;;;;;;;;32.00;30.25;;;;;17.94;57.27;101775.19;5056461;28;46216;-73
2022/04/14 08:57:41;;;;;;;;;30.50;28.50;;;;;17.95;57.31;101769.84;5055854;28;45350;-71
2022/04/14 09:00:10;;;;;;;;;31.75;29.00;;;;;17.88;57.29;101762.88;5060429;28;45366;-72
2022/04/14 09:02:36;;;;;;;;;26.00;24.25;;;;;18.01;57.78;101763.63;5069851;28;45374;-71
2022/04/14 09:05:09;;;;;;;;;32.00;29.50;;;;;17.92;57.42;101732.81;5079939;27;45553;-70
2022/04/14 09:07:34;;;;;;;;;29.00;27.75;;;;;18.26;57.34;101774.78;5076554;27;45533;-70
2022/04/14 09:10:00;;;;;;;;;27.00;24.67;;;;;17.97;56.87;101706.25;5077007;27;45283;-71
2022/04/14 09:12:27;;;;;;;;;30.25;27.75;;;;;18.44;56.41;101768.34;5078431;27;45464;-73
2022/04/14 09:14:53;;;;;;;;;27.33;21.67;;;;;18.56;56.33;101788.53;5081789;27;45476;-71
2022/04/14 09:17:19;;;;;;;;;27.00;25.33;;;;;18.57;56.13;101769.91;5078716;27;45443;-71
2022/04/14 09:19:44;;;;;;;;;27.00;25.00;;;;;18.73;55.08;101781.19;5078593;28;45511;-71
2022/04/14 09:22:15;;;;;;;;;24.00;21.33;;;;;18.66;55.23;101755.63;5079956;27;45349;-73
2022/04/14 09:24:45;;;;;;;;;29.67;28.00;;;;;18.71;54.40;101768.84;5080105;27;45397;-71
2022/04/14 09:27:27;;;;;;;;;27.67;23.33;;;;;18.68;56.06;101777.72;5080501;27;45395;-72
2022/04/14 09:29:54;;;;;;;;;21.67;20.33;;;;;18.83;54.01;101779.28;5079908;28;45479;-73
2022/04/14 09:32:42;;;;;;;;;18.67;17.67;;;;;18.84;55.06;101766.00;5079088;27;45325;-73
2022/04/14 09:35:19;;;;;;;;;17.00;15.67;;;;;18.99;55.58;101772.84;5079710;27;46365;-74
2022/04/14 09:37:44;;;;;;;;;16.33;15.67;;;;;19.09;53.92;101770.91;5079868;27;45323;-71
2022/04/14 09:40:11;;;;;;;;;17.00;16.00;;;;;19.18;54.02;101769.88;5079710;27;45632;-74
2022/04/14 09:42:43;;;;;;;;;13.67;13.67;;;;;19.22;54.56;101758.28;5080533;27;45384;-72
2022/04/14 09:45:20;;;;;;;;;15.67;14.00;;;;;19.22;54.41;101729.06;5078346;27;46208;-73
2022/04/14 09:47:47;;;;;;;;;7.67;7.00;;;;;19.61;54.38;101774.41;5079531;27;45543;-71
2022/04/14 09:50:32;;;;;;;;;14.33;14.33;;;;;19.72;54.10;101772.47;5079801;27;45400;-73
2022/04/14 09:53:01;;;;;;;;;12.67;12.67;;;;;19.83;52.86;101761.59;5080337;27;44781;-75
2022/04/14 09:55:28;;;;;;;;;15.33;15.33;;;;;19.89;53.20;101762.34;5079861;28;45507;-74
2022/04/14 09:58:15;;;;;;;;;16.33;16.00;;;;;20.00;53.22;101770.09;5079404;27;45349;-72
2022/04/14 10:00:42;;;;;;;;;15.67;12.67;;;;;20.09;52.56;101763.72;5078084;28;45445;-74
2022/04/14 10:03:09;;;;;;;;;18.00;16.00;;;;;20.13;51.05;101762.75;5079451;27;45369;-74
2022/04/14 10:05:35;;;;;;;;;11.67;11.67;;;;;20.20;51.58;101764.38;5079206;27;45707;-75
2022/04/14 10:08:01;;;;;;;;;13.00;13.00;;;;;20.27;51.26;101763.31;5079412;27;45414;-71
2022/04/14 10:10:26;;;;;;;;;13.67;11.67;;;;;20.32;51.66;101748.13;5079616;27;45381;-74
2022/04/14 10:13:07;;;;;;;;;13.00;11.33;;;;;20.48;51.01;101774.41;5079806;27;45318;-75
2022/04/14 10:15:38;;;;;;;;;11.33;10.67;;;;;20.57;50.81;101766.22;5079566;27;45575;-73
2022/04/14 10:18:09;;;;;;;;;9.00;9.00;;;;;20.59;51.67;101750.22;5079333;27;45291;-74
2022/04/14 10:20:37;;;;;;;;;11.33;11.00;;;;;20.67;50.56;101737.63;5080438;27;45511;-72
2022/04/14 10:23:03;;;;;;;;;11.00;10.33;;;;;20.81;50.03;101748.81;5081645;27;45546;-73
2022/04/14 10:25:29;;;;;;;;;13.00;12.67;;;;;20.87;49.85;101756.63;5080848;27;45386;-73
2022/04/14 10:27:59;;;;;;;;;12.33;12.33;;;;;20.95;49.58;101751.09;5079096;27;45343;-73
2022/04/14 10:30:26;;;;;;;;;13.00;10.67;;;;;21.01;47.62;101748.31;5078773;27;45468;-73
2022/04/14 10:32:56;;;;;;;;;17.67;14.67;;;;;20.82;46.63;101736.38;5078758;27;45535;-73
2022/04/14 10:35:24;;;;;;;;;14.33;13.00;;;;;20.89;47.39;101745.94;5072841;27;46171;-72
2022/04/14 10:38:15;;;;;;;;;15.00;11.00;;;;;20.88;47.34;101730.88;5078846;27;45380;-71
2022/04/14 10:40:57;;;;;;;;;12.33;9.67;;;;;20.93;48.42;101727.19;5078815;27;45457;-72
2022/04/14 10:43:25;;;;;;;;;12.00;9.33;;;;;21.13;48.10;101744.44;5079030;27;45420;-72
2022/04/14 10:45:52;;;;;;;;;11.33;8.00;;;;;21.21;47.28;101736.25;5077130;28;47799;-71
2022/04/14 10:48:27;;;;;;;;;9.00;9.00;;;;;21.35;47.13;101736.75;5079037;27;45390;-72
2022/04/14 10:51:22;;;;;;;;;9.33;8.33;;;;;21.47;47.28;101728.44;5058960;28;45480;-73
2022/04/14 10:53:58;;;;;;;;;9.67;9.33;;;;;21.59;47.08;101735.22;5058389;28;45494;-76
2022/04/14 10:56:42;;;;;;;;;9.67;7.67;;;;;21.73;46.44;101734.84;5056391;28;47824;-74
2022/04/14 10:59:16;;;;;;;;;11.00;8.67;;;;;21.85;46.26;101739.81;5058374;28;45636;-74
2022/04/14 11:01:51;;;;;;;;;11.00;10.33;;;;;21.95;45.80;101736.00;5058218;28;45353;-73
2022/04/14 11:04:32;;;;;;;;;11.67;9.00;;;;;22.05;45.43;101730.38;5058243;28;45404;-73
2022/04/14 11:07:07;;;;;;;;;9.33;8.33;;;;;22.16;45.04;101734.47;5057552;28;46379;-73
2022/04/14 11:09:38;;;;;;;;;10.00;10.00;;;;;22.23;44.01;101733.41;5058439;28;45497;-74
2022/04/14 11:12:05;;;;;;;;;11.33;9.67;;;;;22.16;43.76;101721.13;5058595;28;45276;-71
2022/04/14 11:14:44;;;;;;;;;10.00;10.00;;;;;22.18;43.09;101737.06;5058457;28;45416;-73